< < Back
Terminal Aerodrome Forecast


Current Version              Previous Versions:   1  2  3  4  5  6  7  8  9  

Terminal Aerodrome Forecast

004
FTUS42 KJAX 012300
TAFSSI
TAF
KSSI 012325Z 0200/0224 04005KT P6SM OVC070
      TEMPO 0210/0212 5SM BR
     FM021300 05006KT P6SM BKN040
     FM021700 08009KT P6SM SCT060 SCT250=



Latest METAR

363
SAUS70 KWBC 020958
MTRSSI
METAR KSSI 020953Z AUTO 00000KT 10SM OVC080 22/21 A3002 RMK AO2 SLP166
T02170206


USA.gov is the U.S. government's official web portal to all federal, state and local government web resources and services.